Time;durP1;ratioP1;P1;durP2;ratioP2;P2;SDS_P1;SDS_P2;PMS_P1;PMS_P2;Temp;Humidity;BMP_temperature;BMP_pressure;BME280_temperature;BME280_humidity;BME280_pressure;Samples;Min_cycle;Max_cycle;Signal;HPM_P1;HPM_P2
2023/10/28 00:00:50;;;;;;;31.45;18.33;;;10.40;99.90;;;;;;5055643;28;20036;-69
2023/10/28 00:03:16;;;;;;;29.85;17.65;;;10.40;99.90;;;;;;5037090;28;20048;-69
2023/10/28 00:05:42;;;;;;;30.20;17.05;;;10.40;99.90;;;;;;5036234;28;20049;-69
2023/10/28 00:08:11;;;;;;;31.38;17.45;;;10.50;99.90;;;;;;5036945;28;20461;-69
2023/10/28 00:10:37;;;;;;;35.28;17.90;;;10.50;99.90;;;;;;5055176;28;20033;-69
2023/10/28 00:13:04;;;;;;;30.70;18.27;;;10.50;99.90;;;;;;5019156;28;20532;-69
2023/10/28 00:15:30;;;;;;;26.75;16.23;;;10.40;99.90;;;;;;5017270;28;20380;-69
2023/10/28 00:17:57;;;;;;;28.38;17.85;;;10.40;99.90;;;;;;5016876;28;20054;-69
2023/10/28 00:20:29;;;;;;;47.97;18.90;;;10.60;99.90;;;;;;5021275;28;20037;-69
2023/10/28 00:22:57;;;;;;;35.35;19.65;;;10.40;99.90;;;;;;5030186;28;20110;-69
2023/10/28 00:25:25;;;;;;;35.50;19.95;;;10.60;99.90;;;;;;5033463;28;20041;-69
2023/10/28 00:27:54;;;;;;;37.70;19.73;;;10.60;99.90;;;;;;4999967;28;20486;-69
2023/10/28 00:30:22;;;;;;;34.40;18.80;;;10.50;99.90;;;;;;5034459;28;20041;-69
2023/10/28 00:32:49;;;;;;;33.33;20.98;;;10.40;99.90;;;;;;5034877;28;20041;-69
2023/10/28 00:35:15;;;;;;;33.97;20.80;;;10.40;99.90;;;;;;5028314;28;20065;-69
2023/10/28 00:37:42;;;;;;;30.83;20.30;;;10.60;99.90;;;;;;4997472;28;20092;-68
2023/10/28 00:40:08;;;;;;;33.53;20.88;;;10.60;99.90;;;;;;4996250;28;20495;-69
2023/10/28 00:42:38;;;;;;;40.50;23.40;;;10.50;99.90;;;;;;4997395;28;20050;-69
2023/10/28 00:45:05;;;;;;;37.10;22.95;;;10.50;99.90;;;;;;4996931;28;20037;-69
2023/10/28 00:47:33;;;;;;;36.05;22.90;;;10.60;99.90;;;;;;5013951;28;20046;-69
2023/10/28 00:50:00;;;;;;;38.03;23.05;;;10.60;99.90;;;;;;4996396;28;20042;-69
2023/10/28 00:52:27;;;;;;;37.70;22.80;;;10.50;99.90;;;;;;4980850;28;20107;-69
2023/10/28 00:54:54;;;;;;;34.53;24.08;;;10.40;99.90;;;;;;5013561;28;20041;-69
2023/10/28 00:57:21;;;;;;;46.38;27.77;;;10.70;99.90;;;;;;4980999;28;20391;-69
2023/10/28 00:59:47;;;;;;;35.17;24.25;;;10.50;99.90;;;;;;4997195;28;20487;-69
2023/10/28 01:02:13;;;;;;;49.67;26.48;;;10.50;99.90;;;;;;5013290;28;20042;-69
2023/10/28 01:04:39;;;;;;;47.65;27.10;;;10.60;99.90;;;;;;4997219;28;20046;-69
2023/10/28 01:07:05;;;;;;;36.67;24.48;;;10.60;99.90;;;;;;4996498;28;20042;-69
2023/10/28 01:09:31;;;;;;;37.85;24.20;;;10.40;99.90;;;;;;4996201;28;20049;-69
2023/10/28 01:11:57;;;;;;;34.03;23.80;;;10.60;99.90;;;;;;5003581;28;20068;-69
2023/10/28 01:14:23;;;;;;;39.90;25.33;;;10.60;99.90;;;;;;5016649;28;20044;-69
2023/10/28 01:16:49;;;;;;;41.83;25.50;;;10.40;99.90;;;;;;5030683;28;20072;-69
2023/10/28 01:19:15;;;;;;;44.13;26.45;;;10.60;99.90;;;;;;5035088;28;20488;-69
2023/10/28 01:21:42;;;;;;;44.22;26.23;;;10.40;99.90;;;;;;5035990;28;20076;-69
2023/10/28 01:24:08;;;;;;;38.40;25.70;;;10.60;99.90;;;;;;5034625;28;20482;-71
2023/10/28 01:26:34;;;;;;;47.40;28.15;;;10.40;99.90;;;;;;5036301;28;20367;-71
2023/10/28 01:29:00;;;;;;;50.50;26.73;;;10.40;99.90;;;;;;5033711;28;20048;-71
2023/10/28 01:31:27;;;;;;;43.95;27.42;;;10.50;99.90;;;;;;5033429;28;20504;-71
2023/10/28 01:33:52;;;;;;;41.38;25.17;;;10.40;99.90;;;;;;5018771;28;20094;-71
2023/10/28 01:36:18;;;;;;;42.50;25.95;;;10.30;99.90;;;;;;5052722;28;20044;-71
2023/10/28 01:38:44;;;;;;;38.53;26.02;;;10.40;99.90;;;;;;5035503;28;20051;-71
2023/10/28 01:41:13;;;;;;;41.47;26.38;;;10.30;99.90;;;;;;5035382;28;20076;-71
2023/10/28 01:43:44;;;;;;;44.97;27.75;;;10.30;99.90;;;;;;5052812;28;20031;-72
2023/10/28 01:46:10;;;;;;;44.35;28.52;;;10.30;99.90;;;;;;5034729;28;20044;-72
2023/10/28 01:48:36;;;;;;;48.20;30.10;;;10.30;99.90;;;;;;5035549;28;20056;-71
2023/10/28 01:51:02;;;;;;;43.65;27.00;;;10.40;99.90;;;;;;5034265;28;20049;-71
2023/10/28 01:53:28;;;;;;;44.50;27.73;;;10.30;99.90;;;;;;5035729;28;20401;-72
2023/10/28 01:55:53;;;;;;;50.25;28.70;;;10.10;99.90;;;;;;5034385;28;20055;-71
2023/10/28 01:58:19;;;;;;;41.42;27.35;;;10.30;99.90;;;;;;5052078;28;20103;-71
2023/10/28 02:00:45;;;;;;;38.55;25.38;;;10.20;99.90;;;;;;5034509;28;20069;-71
2023/10/28 02:03:11;;;;;;;41.45;25.08;;;10.20;99.90;;;;;;5034992;28;20052;-71
2023/10/28 02:05:40;;;;;;;46.03;25.13;;;10.20;99.90;;;;;;5007518;28;20091;-71
2023/10/28 02:08:06;;;;;;;46.97;29.08;;;10.00;99.90;;;;;;5014874;28;20057;-71
2023/10/28 02:10:32;;;;;;;44.85;26.20;;;10.00;99.90;;;;;;5015412;28;20506;-71
2023/10/28 02:12:58;;;;;;;37.85;24.52;;;10.00;99.90;;;;;;4981749;28;20105;-71
2023/10/28 02:15:25;;;;;;;52.28;29.67;;;10.10;99.90;;;;;;4995603;28;20085;-71
2023/10/28 02:17:51;;;;;;;44.08;25.38;;;10.10;99.90;;;;;;4995709;28;20077;-71
2023/10/28 02:20:17;;;;;;;38.28;24.20;;;10.10;99.90;;;;;;4994742;28;20045;-71
2023/10/28 02:22:42;;;;;;;49.33;30.58;;;10.10;99.90;;;;;;5010595;28;20517;-71
2023/10/28 02:25:09;;;;;;;39.03;25.33;;;10.00;99.90;;;;;;4995126;28;20496;-71
2023/10/28 02:27:37;;;;;;;41.25;25.52;;;10.00;99.90;;;;;;4978487;28;20041;-71
2023/10/28 02:30:07;;;;;;;40.50;24.17;;;10.00;99.90;;;;;;4995250;28;20490;-71
2023/10/28 02:32:33;;;;;;;41.10;26.08;;;10.00;99.90;;;;;;4994578;28;20038;-71
2023/10/28 02:35:02;;;;;;;49.70;29.38;;;10.00;99.90;;;;;;4994928;28;20041;-70
2023/10/28 02:37:29;;;;;;;44.90;28.35;;;9.90;99.90;;;;;;4995346;28;20081;-70
2023/10/28 02:39:55;;;;;;;42.50;27.05;;;10.10;99.90;;;;;;5011579;28;20042;-70
2023/10/28 02:42:22;;;;;;;40.40;25.50;;;10.00;99.90;;;;;;4995092;28;20125;-70
2023/10/28 02:44:48;;;;;;;48.20;28.02;;;9.90;99.90;;;;;;4995204;28;20124;-71
2023/10/28 02:47:15;;;;;;;43.97;26.13;;;10.00;99.90;;;;;;4977528;28;20050;-70
2023/10/28 02:49:41;;;;;;;46.40;26.95;;;9.90;99.90;;;;;;4978913;28;20076;-71
2023/10/28 02:52:07;;;;;;;42.20;27.00;;;9.90;99.90;;;;;;4994911;28;20053;-70
2023/10/28 02:54:34;;;;;;;51.55;28.20;;;10.00;99.90;;;;;;4994269;28;20172;-71
2023/10/28 02:57:00;;;;;;;39.42;23.88;;;9.90;99.90;;;;;;4994733;28;20160;-71
2023/10/28 02:59:27;;;;;;;38.47;23.70;;;9.90;99.90;;;;;;4978856;28;20045;-70
2023/10/28 03:01:53;;;;;;;47.33;25.45;;;9.80;99.90;;;;;;4993732;28;20480;-70
2023/10/28 03:04:19;;;;;;;45.25;27.58;;;9.90;99.90;;;;;;4995152;28;20553;-71
2023/10/28 03:06:45;;;;;;;45.15;26.95;;;9.90;99.90;;;;;;4978826;28;20038;-71
2023/10/28 03:09:11;;;;;;;40.47;24.25;;;9.80;99.90;;;;;;4993734;28;20479;-71
2023/10/28 03:11:40;;;;;;;35.88;22.10;;;9.80;99.90;;;;;;4998945;28;20049;-71
2023/10/28 03:14:06;;;;;;;35.83;24.02;;;9.70;99.90;;;;;;5013817;28;20083;-71
2023/10/28 03:16:32;;;;;;;35.83;21.60;;;9.80;99.90;;;;;;5031524;28;20080;-71
2023/10/28 03:18:57;;;;;;;46.33;24.30;;;9.70;99.90;;;;;;5013862;28;20498;-71
2023/10/28 03:21:23;;;;;;;38.28;22.70;;;9.70;99.90;;;;;;5015114;28;20084;-71
2023/10/28 03:23:50;;;;;;;36.00;22.20;;;9.60;99.90;;;;;;5031522;28;20398;-71
2023/10/28 03:26:15;;;;;;;38.53;22.85;;;9.70;99.90;;;;;;5030521;28;20045;-71
2023/10/28 03:28:41;;;;;;;33.10;20.48;;;9.50;99.90;;;;;;5013651;28;20052;-70
2023/10/28 03:31:12;;;;;;;34.30;21.13;;;9.50;99.90;;;;;;5013747;28;20056;-71
2023/10/28 03:33:38;;;;;;;32.80;20.95;;;9.60;99.90;;;;;;5032206;28;20124;-71
2023/10/28 03:36:05;;;;;;;29.52;19.23;;;9.50;99.90;;;;;;5030719;28;20498;-70
2023/10/28 03:38:33;;;;;;;34.75;22.13;;;9.50;99.90;;;;;;5031834;28;20128;-70
2023/10/28 03:40:59;;;;;;;44.95;23.70;;;9.40;99.90;;;;;;4997749;28;20427;-70
2023/10/28 03:43:25;;;;;;;40.08;22.65;;;9.40;99.90;;;;;;5013405;28;20180;-70
2023/10/28 03:45:50;;;;;;;32.15;18.05;;;9.40;99.90;;;;;;4997937;28;20076;-71
2023/10/28 03:48:16;;;;;;;39.05;20.90;;;9.40;99.90;;;;;;5013690;28;20119;-71
2023/10/28 03:50:41;;;;;;;42.22;20.88;;;9.40;99.90;;;;;;5013391;28;20435;-71
2023/10/28 03:53:07;;;;;;;35.53;21.60;;;9.40;99.90;;;;;;5004340;28;20569;-71
2023/10/28 03:55:33;;;;;;;31.00;20.33;;;9.30;99.90;;;;;;5051672;28;20040;-71
2023/10/28 03:57:59;;;;;;;30.75;18.60;;;9.30;99.90;;;;;;5050134;28;20501;-71
2023/10/28 04:00:24;;;;;;;30.17;18.45;;;9.30;99.90;;;;;;5033818;28;20048;-71
2023/10/28 04:02:50;;;;;;;30.70;19.17;;;9.20;99.90;;;;;;5051668;28;20134;-71
2023/10/28 04:05:17;;;;;;;31.77;19.63;;;9.10;99.90;;;;;;5050378;28;20048;-71
2023/10/28 04:07:43;;;;;;;41.47;22.42;;;9.10;99.90;;;;;;5033821;28;20405;-71
2023/10/28 04:10:09;;;;;;;38.78;20.92;;;9.20;99.90;;;;;;5033508;28;20040;-70
2023/10/28 04:12:36;;;;;;;41.17;21.25;;;9.10;99.90;;;;;;5020240;28;20510;-70
2023/10/28 04:15:03;;;;;;;29.38;18.25;;;9.20;99.90;;;;;;5012832;28;20130;-71
2023/10/28 04:17:31;;;;;;;34.45;20.95;;;9.10;99.90;;;;;;5031557;28;20104;-71
2023/10/28 04:19:59;;;;;;;29.90;17.13;;;9.10;99.90;;;;;;4996253;28;20080;-71
2023/10/28 04:22:25;;;;;;;29.70;18.15;;;9.20;99.90;;;;;;5031666;28;20073;-71
2023/10/28 04:24:51;;;;;;;31.33;18.65;;;9.20;99.90;;;;;;5016807;28;20122;-71
2023/10/28 04:27:16;;;;;;;28.13;18.33;;;9.10;99.90;;;;;;5016402;28;20571;-71
2023/10/28 04:29:42;;;;;;;31.20;18.27;;;9.10;99.90;;;;;;5034840;28;20053;-71
2023/10/28 04:32:08;;;;;;;27.42;16.63;;;9.10;99.90;;;;;;5033706;28;20120;-71
2023/10/28 04:34:33;;;;;;;25.45;15.85;;;9.10;99.90;;;;;;5017361;28;20113;-71
2023/10/28 04:36:59;;;;;;;28.63;18.42;;;9.00;99.90;;;;;;5016853;28;20037;-71
2023/10/28 04:39:24;;;;;;;28.75;17.20;;;9.00;99.90;;;;;;5016171;28;20469;-71
2023/10/28 04:41:52;;;;;;;34.20;18.52;;;9.10;99.90;;;;;;5034365;28;20478;-71
2023/10/28 04:44:18;;;;;;;30.75;17.67;;;8.90;99.90;;;;;;5026075;28;20050;-71
2023/10/28 04:46:43;;;;;;;26.95;17.23;;;9.00;99.90;;;;;;4996745;28;20097;-71
2023/10/28 04:49:12;;;;;;;23.10;14.23;;;8.90;99.90;;;;;;4980696;28;20049;-71
2023/10/28 04:51:38;;;;;;;24.50;15.30;;;9.00;99.90;;;;;;5014675;28;20088;-71
2023/10/28 04:54:09;;;;;;;33.03;18.50;;;9.00;99.90;;;;;;4996001;28;20391;-71
2023/10/28 04:56:35;;;;;;;30.27;15.77;;;8.90;99.90;;;;;;4997408;28;20111;-71
2023/10/28 04:59:00;;;;;;;32.42;17.23;;;8.90;99.90;;;;;;4996646;28;20042;-71
2023/10/28 05:01:26;;;;;;;25.60;15.75;;;8.90;99.90;;;;;;4996796;28;20041;-71
2023/10/28 05:03:52;;;;;;;23.45;13.90;;;8.90;99.90;;;;;;4998525;28;20484;-71
2023/10/28 05:06:19;;;;;;;25.27;15.43;;;8.80;99.90;;;;;;5029860;28;20041;-71
2023/10/28 05:08:45;;;;;;;31.92;17.70;;;8.90;99.90;;;;;;5013793;28;20084;-71
2023/10/28 05:11:15;;;;;;;33.38;17.55;;;9.00;99.90;;;;;;4997544;28;20131;-70
2023/10/28 05:13:42;;;;;;;35.42;19.13;;;8.90;99.90;;;;;;5016775;28;20176;-71
2023/10/28 05:16:09;;;;;;;37.13;20.35;;;9.00;99.90;;;;;;5019227;28;20128;-71
2023/10/28 05:18:36;;;;;;;34.20;18.90;;;9.00;99.90;;;;;;5036310;28;20123;-71
2023/10/28 05:21:01;;;;;;;34.15;20.95;;;9.00;99.90;;;;;;5053504;28;20037;-71
2023/10/28 05:23:27;;;;;;;34.30;20.10;;;9.00;99.90;;;;;;5035256;28;20375;-71
2023/10/28 05:25:53;;;;;;;42.90;23.48;;;9.10;99.90;;;;;;5018777;28;20398;-71
2023/10/28 05:28:19;;;;;;;32.75;19.35;;;9.10;99.90;;;;;;5052989;28;20489;-71
2023/10/28 05:30:48;;;;;;;29.50;19.17;;;9.20;99.90;;;;;;5035881;28;20047;-71
2023/10/28 05:33:13;;;;;;;27.20;16.63;;;9.20;99.90;;;;;;5034477;28;20154;-71
2023/10/28 05:35:39;;;;;;;32.20;18.90;;;9.20;99.90;;;;;;5034620;28;20517;-71
2023/10/28 05:38:05;;;;;;;28.80;16.25;;;9.10;99.90;;;;;;5035188;28;20048;-71
2023/10/28 05:40:31;;;;;;;31.02;15.45;;;9.10;99.90;;;;;;5019465;28;20077;-71
2023/10/28 05:42:56;;;;;;;27.92;18.05;;;9.10;99.90;;;;;;5014977;28;20487;-71
2023/10/28 05:45:22;;;;;;;26.45;16.05;;;9.20;99.90;;;;;;5000687;28;20120;-71
2023/10/28 05:47:48;;;;;;;28.55;17.08;;;9.20;99.90;;;;;;4999598;28;20128;-70
2023/10/28 05:50:13;;;;;;;28.00;16.95;;;9.10;99.90;;;;;;5032198;28;20037;-71
2023/10/28 05:52:39;;;;;;;25.92;17.10;;;9.10;99.90;;;;;;5048509;28;20041;-71
2023/10/28 05:55:12;;;;;;;28.02;16.90;;;9.10;99.90;;;;;;5025609;28;20447;-71
2023/10/28 05:57:38;;;;;;;28.85;16.90;;;9.30;99.90;;;;;;5034817;28;20045;-70
2023/10/28 06:00:09;;;;;;;36.33;16.95;;;9.10;99.90;;;;;;5030777;28;20398;-70
2023/10/28 06:02:36;;;;;;;35.83;19.10;;;9.10;99.90;;;;;;5016400;28;20509;-70
2023/10/28 06:05:03;;;;;;;29.17;19.13;;;9.10;99.90;;;;;;5050845;28;20037;-70
2023/10/28 06:07:30;;;;;;;26.00;16.80;;;9.30;99.90;;;;;;5018849;28;20041;-70
2023/10/28 06:09:55;;;;;;;43.47;22.23;;;9.30;99.90;;;;;;5052253;28;20044;-70
2023/10/28 06:12:21;;;;;;;43.85;21.08;;;9.20;99.90;;;;;;5042631;28;20490;-70
2023/10/28 06:14:47;;;;;;;28.10;17.98;;;9.30;99.90;;;;;;5015446;28;20045;-70
2023/10/28 06:17:13;;;;;;;32.05;17.77;;;9.20;99.90;;;;;;5014857;28;20072;-70
2023/10/28 06:19:40;;;;;;;29.13;17.77;;;9.30;99.90;;;;;;5032256;28;20037;-71
2023/10/28 06:22:07;;;;;;;31.70;18.92;;;9.40;99.90;;;;;;5031604;28;20058;-71
2023/10/28 06:24:33;;;;;;;25.42;17.50;;;9.40;99.90;;;;;;5034010;28;20379;-70
2023/10/28 06:26:59;;;;;;;30.17;18.73;;;9.30;99.90;;;;;;5034330;28;20055;-70
2023/10/28 06:29:25;;;;;;;30.88;18.23;;;9.40;99.90;;;;;;5052775;28;20036;-70
2023/10/28 06:31:51;;;;;;;31.98;19.50;;;9.40;99.90;;;;;;5031947;28;20098;-70
2023/10/28 06:34:17;;;;;;;39.05;20.40;;;9.30;99.90;;;;;;5034998;28;20045;-70
2023/10/28 06:36:43;;;;;;;34.47;18.58;;;9.40;99.90;;;;;;5018446;28;20083;-70
2023/10/28 06:39:09;;;;;;;30.80;16.88;;;9.40;99.90;;;;;;5050962;28;20037;-70
2023/10/28 06:41:35;;;;;;;28.83;17.38;;;9.40;99.90;;;;;;5017942;28;20101;-70
2023/10/28 06:44:05;;;;;;;32.60;18.45;;;9.50;99.90;;;;;;5034173;28;20073;-70
2023/10/28 06:46:34;;;;;;;34.38;19.50;;;9.50;99.90;;;;;;5032944;28;20039;-70
2023/10/28 06:49:01;;;;;;;29.02;18.42;;;9.60;99.90;;;;;;5033967;28;20073;-70
2023/10/28 06:51:26;;;;;;;31.67;17.85;;;9.60;99.90;;;;;;5006620;28;20566;-70
2023/10/28 06:53:52;;;;;;;35.38;18.23;;;9.70;99.90;;;;;;5021080;28;20123;-70
2023/10/28 06:56:18;;;;;;;28.60;17.48;;;9.60;99.90;;;;;;5019223;28;20090;-70
2023/10/28 06:58:43;;;;;;;28.85;16.83;;;9.80;99.90;;;;;;5014394;28;20076;-71
2023/10/28 07:01:11;;;;;;;30.00;17.77;;;9.70;99.90;;;;;;5013526;28;20029;-71
2023/10/28 07:03:37;;;;;;;28.15;17.45;;;9.70;99.90;;;;;;4999573;28;20083;-71
2023/10/28 07:06:09;;;;;;;28.27;16.58;;;9.90;99.90;;;;;;5033516;28;20084;-71
2023/10/28 07:08:36;;;;;;;27.08;15.10;;;9.80;99.90;;;;;;5033588;28;20512;-71
2023/10/28 07:11:02;;;;;;;29.60;17.27;;;9.90;99.90;;;;;;5033819;28;20497;-70
2023/10/28 07:13:27;;;;;;;27.10;16.02;;;9.80;99.90;;;;;;5014264;28;20060;-71
2023/10/28 07:16:03;;;;;;;25.45;16.48;;;9.90;99.90;;;;;;5013382;28;20048;-71
2023/10/28 07:18:33;;;;;;;29.88;14.82;;;9.90;99.90;;;;;;5007661;28;20053;-70
2023/10/28 07:21:02;;;;;;;27.20;14.80;;;10.00;99.90;;;;;;4980817;28;20508;-71
2023/10/28 07:23:29;;;;;;;30.77;14.25;;;10.00;99.90;;;;;;5008585;28;20121;-71
2023/10/28 07:25:54;;;;;;;22.98;14.55;;;10.20;99.90;;;;;;5024618;28;20053;-71
2023/10/28 07:28:20;;;;;;;23.77;14.15;;;10.10;99.90;;;;;;5009292;28;20145;-70
2023/10/28 07:30:50;;;;;;;22.30;12.55;;;10.10;99.90;;;;;;5024644;28;20495;-70
2023/10/28 07:33:20;;;;;;;23.17;12.90;;;10.20;99.90;;;;;;5027413;28;20049;-70
2023/10/28 07:35:50;;;;;;;21.00;12.43;;;10.10;99.90;;;;;;5009852;28;20049;-70
2023/10/28 07:38:17;;;;;;;20.48;11.52;;;10.20;99.90;;;;;;5011437;28;20537;-70
2023/10/28 07:40:52;;;;;;;17.77;11.43;;;10.20;99.90;;;;;;4996945;28;20046;-70
2023/10/28 07:43:18;;;;;;;19.50;10.98;;;10.30;99.90;;;;;;5025529;28;20089;-70
2023/10/28 07:45:46;;;;;;;17.23;9.77;;;10.20;99.90;;;;;;4993449;28;20448;-70
2023/10/28 07:48:11;;;;;;;17.08;10.48;;;10.30;99.90;;;;;;5007983;28;20037;-70
2023/10/28 07:50:38;;;;;;;17.30;10.43;;;10.20;99.90;;;;;;5026890;28;20053;-70
2023/10/28 07:53:07;;;;;;;16.77;10.45;;;10.20;99.90;;;;;;5024736;28;20497;-69
2023/10/28 07:55:39;;;;;;;14.43;10.00;;;10.20;99.90;;;;;;4982620;28;20076;-69
2023/10/28 07:58:05;;;;;;;15.82;10.15;;;10.40;99.90;;;;;;5012810;28;20050;-69
2023/10/28 08:00:36;;;;;;;14.45;8.77;;;10.40;99.90;;;;;;5005208;28;20050;-70
2023/10/28 08:03:03;;;;;;;15.55;8.48;;;10.50;99.90;;;;;;5005054;28;20124;-70
2023/10/28 08:05:29;;;;;;;13.02;7.82;;;10.50;99.90;;;;;;5014524;28;20437;-70
2023/10/28 08:07:54;;;;;;;14.43;8.68;;;10.60;99.90;;;;;;5007310;28;20047;-70
2023/10/28 08:10:23;;;;;;;16.33;9.10;;;10.40;99.90;;;;;;5013832;28;20748;-70
2023/10/28 08:12:53;;;;;;;14.35;8.38;;;10.70;99.90;;;;;;4997725;28;20111;-69
2023/10/28 08:15:23;;;;;;;15.25;7.80;;;10.70;99.90;;;;;;5014383;28;20841;-70
2023/10/28 08:17:50;;;;;;;17.58;8.88;;;10.60;99.90;;;;;;5013383;28;20513;-70
2023/10/28 08:20:17;;;;;;;13.60;6.82;;;10.70;99.90;;;;;;4997286;28;20056;-69
2023/10/28 08:22:44;;;;;;;10.75;6.85;;;10.60;99.90;;;;;;5014441;28;20049;-70
2023/10/28 08:25:17;;;;;;;14.18;7.32;;;10.70;99.90;;;;;;5030808;28;20090;-70
2023/10/28 08:27:44;;;;;;;13.35;7.75;;;10.90;99.90;;;;;;4997941;28;20037;-70
2023/10/28 08:30:17;;;;;;;13.50;7.32;;;10.90;99.90;;;;;;4994684;28;20042;-69
2023/10/28 08:32:43;;;;;;;13.15;6.78;;;10.80;99.90;;;;;;4994827;28;20410;-69
2023/10/28 08:35:09;;;;;;;10.25;6.80;;;10.90;99.90;;;;;;5013805;28;20111;-70
2023/10/28 08:37:36;;;;;;;13.30;6.28;;;11.10;99.90;;;;;;5013722;28;20045;-70
2023/10/28 08:40:08;;;;;;;11.77;6.43;;;10.90;99.90;;;;;;4996201;28;20046;-70
2023/10/28 08:42:35;;;;;;;13.18;6.57;;;10.90;99.90;;;;;;4999219;28;20038;-70
2023/10/28 08:45:03;;;;;;;12.02;6.88;;;11.10;99.90;;;;;;5012804;28;20053;-70
2023/10/28 08:47:32;;;;;;;12.68;7.40;;;11.00;99.90;;;;;;5018904;28;20042;-70
2023/10/28 08:50:00;;;;;;;12.48;6.88;;;11.10;99.90;;;;;;5019915;28;20042;-70
2023/10/28 08:52:28;;;;;;;11.35;6.18;;;10.90;99.90;;;;;;4994433;28;20057;-70
2023/10/28 08:54:57;;;;;;;13.15;6.20;;;10.90;99.90;;;;;;5006125;28;20048;-70
2023/10/28 08:57:23;;;;;;;13.77;7.32;;;10.90;99.90;;;;;;5013712;28;20091;-70
2023/10/28 08:59:50;;;;;;;10.32;5.40;;;11.00;99.90;;;;;;4987478;28;20081;-70
2023/10/28 09:02:19;;;;;;;16.75;6.53;;;10.90;99.90;;;;;;4997497;28;20082;-70
2023/10/28 09:04:45;;;;;;;15.20;5.90;;;11.00;99.90;;;;;;5014793;28;20437;-69
2023/10/28 09:07:11;;;;;;;13.75;6.10;;;11.00;99.90;;;;;;4993121;28;20042;-69
2023/10/28 09:09:39;;;;;;;12.77;6.18;;;10.80;99.90;;;;;;4983779;28;20136;-70
2023/10/28 09:12:09;;;;;;;10.10;5.90;;;10.90;99.90;;;;;;5016734;28;20064;-70
2023/10/28 09:14:35;;;;;;;11.57;5.72;;;11.00;99.90;;;;;;5033427;28;20057;-70
2023/10/28 09:17:03;;;;;;;8.93;5.40;;;11.00;99.90;;;;;;5019786;28;20424;-70
2023/10/28 09:19:29;;;;;;;13.02;5.95;;;10.90;99.90;;;;;;5002383;28;20045;-70
2023/10/28 09:21:55;;;;;;;11.55;6.82;;;10.90;99.90;;;;;;5032386;28;20078;-70
2023/10/28 09:24:22;;;;;;;11.18;5.82;;;10.90;99.90;;;;;;5033682;28;20028;-70
2023/10/28 09:26:52;;;;;;;12.77;5.55;;;10.90;99.90;;;;;;5032411;28;20123;-70
2023/10/28 09:29:33;;;;;;;10.10;5.93;;;11.10;99.90;;;;;;5026206;28;20048;-62
2023/10/28 09:32:06;;;;;;;12.52;6.18;;;10.90;99.90;;;;;;5014765;28;20128;-62
2023/10/28 09:34:41;;;;;;;11.15;5.55;;;11.00;99.90;;;;;;5019248;28;20044;-62
2023/10/28 09:37:08;;;;;;;13.30;5.93;;;11.00;99.90;;;;;;5033002;28;20052;-63
2023/10/28 09:39:35;;;;;;;12.63;6.40;;;11.10;99.90;;;;;;5012340;28;20395;-62
2023/10/28 09:42:02;;;;;;;12.85;6.00;;;11.00;99.90;;;;;;5020206;28;20037;-62
2023/10/28 09:44:28;;;;;;;11.45;6.25;;;11.10;99.90;;;;;;5019012;28;20051;-62
2023/10/28 09:47:00;;;;;;;8.52;5.63;;;11.20;99.90;;;;;;5036011;28;20045;-62
2023/10/28 09:49:30;;;;;;;9.43;5.40;;;11.00;99.90;;;;;;5030751;28;20445;-62
2023/10/28 09:52:05;;;;;;;10.05;5.30;;;11.10;99.90;;;;;;5030632;28;20051;-62
2023/10/28 09:54:34;;;;;;;10.55;5.65;;;11.20;99.90;;;;;;5032927;28;20545;-62
2023/10/28 09:57:01;;;;;;;13.43;5.78;;;11.10;99.90;;;;;;5014195;28;20045;-62
2023/10/28 09:59:33;;;;;;;8.45;5.82;;;11.20;99.90;;;;;;5022801;28;20060;-62
2023/10/28 10:02:40;;;;;;;10.93;5.97;;;11.30;99.90;;;;;;5008114;28;20064;-62
2023/10/28 10:05:15;;;;;;;13.73;6.13;;;11.20;99.90;;;;;;5025047;28;20478;-62
2023/10/28 10:07:41;;;;;;;13.95;6.30;;;11.30;99.90;;;;;;5021478;28;20041;-62
2023/10/28 10:10:13;;;;;;;9.70;5.55;;;11.20;99.90;;;;;;5036926;28;20033;-62
2023/10/28 10:12:39;;;;;;;9.82;5.65;;;11.30;99.90;;;;;;5021509;28;20136;-62
2023/10/28 10:15:09;;;;;;;11.23;5.95;;;11.20;99.90;;;;;;5025523;28;20540;-62
2023/10/28 10:17:48;;;;;;;13.25;5.72;;;11.20;99.90;;;;;;5022295;28;20098;-62
2023/10/28 10:20:25;;;;;;;10.25;5.28;;;11.20;99.90;;;;;;5021187;28;20125;-62
2023/10/28 10:22:59;;;;;;;9.73;5.78;;;11.40;99.90;;;;;;5006904;28;20127;-62
2023/10/28 10:25:31;;;;;;;10.43;5.07;;;11.20;99.90;;;;;;5022198;28;20044;-62
2023/10/28 10:28:10;;;;;;;9.52;4.90;;;11.20;99.90;;;;;;5006030;28;20478;-62
2023/10/28 10:30:35;;;;;;;10.82;6.10;;;11.30;99.90;;;;;;5046965;28;20044;-62
2023/10/28 10:33:01;;;;;;;9.50;5.22;;;11.40;99.90;;;;;;5026763;28;20395;-62
2023/10/28 10:35:30;;;;;;;10.13;4.93;;;11.30;99.90;;;;;;5023643;28;20522;-62
2023/10/28 10:38:05;;;;;;;10.48;4.90;;;11.40;99.90;;;;;;5044559;28;20048;-62
2023/10/28 10:40:33;;;;;;;9.18;5.00;;;11.40;99.90;;;;;;5002341;28;20040;-62
2023/10/28 10:43:09;;;;;;;11.48;5.38;;;11.40;99.90;;;;;;5016052;28;20167;-62
2023/10/28 10:45:36;;;;;;;11.15;5.40;;;11.60;99.90;;;;;;5012060;28;20124;-62
2023/10/28 10:48:07;;;;;;;9.52;4.82;;;11.60;99.90;;;;;;5016419;28;20041;-62
2023/10/28 10:50:38;;;;;;;11.50;5.30;;;11.70;99.90;;;;;;5025234;28;20060;-62
2023/10/28 10:53:04;;;;;;;10.10;5.13;;;11.60;99.90;;;;;;5007015;28;20049;-62
2023/10/28 10:55:31;;;;;;;10.00;5.18;;;11.60;99.90;;;;;;4997909;28;20037;-62
2023/10/28 10:57:58;;;;;;;8.00;4.47;;;11.70;99.90;;;;;;5000966;28;20041;-62
2023/10/28 11:00:24;;;;;;;14.88;5.65;;;11.70;99.90;;;;;;5010806;28;20041;-62
2023/10/28 11:02:50;;;;;;;9.93;5.15;;;11.80;99.90;;;;;;5023225;28;20040;-63
2023/10/28 11:05:17;;;;;;;11.38;5.68;;;11.80;99.90;;;;;;5028130;28;20053;-62
2023/10/28 11:07:45;;;;;;;9.10;5.10;;;11.70;99.90;;;;;;5042711;28;20683;-62
2023/10/28 11:10:11;;;;;;;11.13;5.00;;;11.70;99.90;;;;;;5019008;28;20049;-62
2023/10/28 11:12:38;;;;;;;9.63;4.88;;;11.60;99.90;;;;;;5008869;28;20061;-63
2023/10/28 11:15:04;;;;;;;8.10;4.63;;;11.80;99.90;;;;;;5010910;28;20041;-62
2023/10/28 11:17:30;;;;;;;8.40;4.78;;;11.70;99.90;;;;;;5023083;28;20045;-62
2023/10/28 11:20:00;;;;;;;14.40;5.80;;;11.70;99.90;;;;;;5026692;28;20100;-62
2023/10/28 11:22:26;;;;;;;10.60;4.90;;;11.80;99.90;;;;;;5027952;28;20178;-62
2023/10/28 11:24:55;;;;;;;12.18;4.72;;;11.80;99.90;;;;;;5023711;28;20056;-62
2023/10/28 11:27:23;;;;;;;11.02;5.05;;;11.80;99.90;;;;;;5040998;28;20072;-62
2023/10/28 11:29:58;;;;;;;9.23;4.95;;;11.80;99.90;;;;;;5024871;28;20072;-62
2023/10/28 11:32:27;;;;;;;10.02;4.70;;;11.90;99.90;;;;;;5026204;28;20033;-62
2023/10/28 11:34:55;;;;;;;8.35;4.43;;;11.80;99.90;;;;;;5046119;28;20052;-62
2023/10/28 11:37:22;;;;;;;11.05;4.90;;;11.80;99.90;;;;;;5030799;28;20041;-63
2023/10/28 11:39:49;;;;;;;10.45;4.60;;;11.90;99.90;;;;;;5018104;28;20529;-62
2023/10/28 11:42:18;;;;;;;9.82;4.32;;;11.70;99.90;;;;;;5022032;28;20048;-62
2023/10/28 11:44:49;;;;;;;10.98;4.40;;;11.80;99.90;;;;;;5031134;28;20482;-63
2023/10/28 11:47:16;;;;;;;10.38;5.00;;;11.90;99.90;;;;;;5034039;28;20044;-62
2023/10/28 11:49:41;;;;;;;9.68;4.00;;;11.90;99.90;;;;;;5042010;28;20128;-62
2023/10/28 11:52:09;;;;;;;11.30;4.57;;;11.90;99.90;;;;;;5015230;28;20144;-62
2023/10/28 11:54:35;;;;;;;9.07;4.50;;;11.90;99.90;;;;;;5029822;28;20493;-62
2023/10/28 11:57:00;;;;;;;7.47;4.18;;;12.00;99.90;;;;;;5028750;28;20042;-62
2023/10/28 11:59:26;;;;;;;7.25;4.22;;;12.00;99.90;;;;;;5026457;28;20049;-62
2023/10/28 12:01:53;;;;;;;10.18;4.45;;;12.00;99.90;;;;;;5016053;28;20036;-62
2023/10/28 12:04:21;;;;;;;9.90;3.85;;;12.00;99.90;;;;;;5027526;28;20081;-62
2023/10/28 12:06:47;;;;;;;8.43;3.92;;;11.90;99.90;;;;;;5018206;28;20566;-63
2023/10/28 12:09:14;;;;;;;7.43;4.03;;;12.00;99.90;;;;;;4997964;28;20045;-62
2023/10/28 12:11:40;;;;;;;9.85;4.20;;;12.00;99.90;;;;;;5014892;28;20460;-62
2023/10/28 12:14:07;;;;;;;8.27;4.15;;;11.90;99.90;;;;;;5015234;28;20132;-62
2023/10/28 12:16:35;;;;;;;12.90;5.00;;;12.10;99.90;;;;;;5014631;28;20647;-62
2023/10/28 12:19:02;;;;;;;10.85;4.72;;;12.20;99.90;;;;;;5032389;28;20391;-62
2023/10/28 12:21:28;;;;;;;9.75;4.63;;;12.00;99.90;;;;;;5015252;28;20052;-62
2023/10/28 12:23:54;;;;;;;9.70;4.20;;;12.20;99.90;;;;;;5013743;28;20054;-62
2023/10/28 12:26:20;;;;;;;7.25;3.95;;;12.20;99.90;;;;;;5033064;28;20815;-62
2023/10/28 12:28:48;;;;;;;10.25;5.03;;;12.20;99.90;;;;;;5033176;28;20048;-62
2023/10/28 12:31:14;;;;;;;7.70;4.13;;;12.30;99.90;;;;;;5014384;28;20102;-62
2023/10/28 12:33:40;;;;;;;6.65;3.53;;;12.30;99.90;;;;;;5026601;28;20045;-62
2023/10/28 12:36:08;;;;;;;9.73;4.40;;;12.20;99.90;;;;;;5046883;28;20045;-62